sensor_id;sensor_type;location;lat;lon;timestamp;pressure;altitude;pressure_sealevel;temperature;humidity
59877;BME280;45749;51.140;17.184;2023-05-08T00:02:29;101243.00;;;7.22;75.16
59877;BME280;45749;51.140;17.184;2023-05-08T00:04:55;101233.63;;;7.16;75.34
59877;BME280;45749;51.140;17.184;2023-05-08T00:07:20;101236.47;;;7.12;75.32
59877;BME280;45749;51.140;17.184;2023-05-08T00:09:46;101246.97;;;7.12;75.60
59877;BME280;45749;51.140;17.184;2023-05-08T00:12:11;101242.81;;;7.06;75.44
59877;BME280;45749;51.140;17.184;2023-05-08T00:14:36;101250.78;;;7.04;75.53
59877;BME280;45749;51.140;17.184;2023-05-08T00:17:02;101250.09;;;6.99;75.53
59877;BME280;45749;51.140;17.184;2023-05-08T00:19:27;101249.38;;;6.96;75.42
59877;BME280;45749;51.140;17.184;2023-05-08T00:21:52;101238.44;;;6.86;75.57
59877;BME280;45749;51.140;17.184;2023-05-08T00:24:18;101249.78;;;6.87;75.41
59877;BME280;45749;51.140;17.184;2023-05-08T00:26:43;101246.56;;;6.80;75.56
59877;BME280;45749;51.140;17.184;2023-05-08T00:29:09;101249.25;;;6.78;75.75
59877;BME280;45749;51.140;17.184;2023-05-08T00:31:35;101244.91;;;6.77;75.82
59877;BME280;45749;51.140;17.184;2023-05-08T00:34:01;101243.22;;;6.76;75.80
59877;BME280;45749;51.140;17.184;2023-05-08T00:36:26;101247.81;;;6.71;75.55
59877;BME280;45749;51.140;17.184;2023-05-08T00:38:52;101246.16;;;6.69;75.88
59877;BME280;45749;51.140;17.184;2023-05-08T00:41:17;101254.22;;;6.64;75.65
59877;BME280;45749;51.140;17.184;2023-05-08T00:43:43;101246.56;;;6.60;75.84
59877;BME280;45749;51.140;17.184;2023-05-08T00:46:08;101244.91;;;6.57;76.03
59877;BME280;45749;51.140;17.184;2023-05-08T00:48:35;101255.50;;;6.54;76.09
59877;BME280;45749;51.140;17.184;2023-05-08T00:51:02;101242.59;;;6.49;76.11
59877;BME280;45749;51.140;17.184;2023-05-08T00:53:29;101252.28;;;6.47;76.05
59877;BME280;45749;51.140;17.184;2023-05-08T00:55:57;101254.78;;;6.50;76.18
59877;BME280;45749;51.140;17.184;2023-05-08T00:58:25;101247.84;;;6.49;76.06
59877;BME280;45749;51.140;17.184;2023-05-08T01:00:52;101250.50;;;6.48;76.37
59877;BME280;45749;51.140;17.184;2023-05-08T01:03:19;101248.09;;;6.43;76.25
59877;BME280;45749;51.140;17.184;2023-05-08T01:05:45;101251.75;;;6.39;76.22
59877;BME280;45749;51.140;17.184;2023-05-08T01:08:10;101252.53;;;6.41;76.18
59877;BME280;45749;51.140;17.184;2023-05-08T01:10:53;101247.41;;;6.38;76.18
59877;BME280;45749;51.140;17.184;2023-05-08T01:13:41;101262.25;;;6.39;76.44
59877;BME280;45749;51.140;17.184;2023-05-08T01:16:14;101261.44;;;6.37;76.60
59877;BME280;45749;51.140;17.184;2023-05-08T01:18:54;101252.72;;;6.37;76.63
59877;BME280;45749;51.140;17.184;2023-05-08T01:21:43;101251.28;;;6.29;76.58
59877;BME280;45749;51.140;17.184;2023-05-08T01:29:39;101262.66;;;6.28;76.64
59877;BME280;45749;51.140;17.184;2023-05-08T01:32:18;101262.72;;;6.27;76.88
59877;BME280;45749;51.140;17.184;2023-05-08T01:37:39;101259.31;;;6.25;76.98
59877;BME280;45749;51.140;17.184;2023-05-08T01:42:52;101266.44;;;6.21;77.03
59877;BME280;45749;51.140;17.184;2023-05-08T01:45:30;101262.19;;;6.19;77.08
59877;BME280;45749;51.140;17.184;2023-05-08T01:48:06;101254.44;;;6.16;77.08
59877;BME280;45749;51.140;17.184;2023-05-08T01:50:37;101257.22;;;6.11;77.11
59877;BME280;45749;51.140;17.184;2023-05-08T01:53:09;101266.75;;;6.14;77.00
59877;BME280;45749;51.140;17.184;2023-05-08T01:55:37;101274.69;;;6.12;77.00
59877;BME280;45749;51.140;17.184;2023-05-08T01:58:08;101266.13;;;6.07;77.04
59877;BME280;45749;51.140;17.184;2023-05-08T02:00:37;101265.28;;;6.06;77.13
59877;BME280;45749;51.140;17.184;2023-05-08T02:03:05;101267.94;;;6.05;77.34
59877;BME280;45749;51.140;17.184;2023-05-08T02:05:32;101268.03;;;6.03;77.11
59877;BME280;45749;51.140;17.184;2023-05-08T02:08:00;101257.84;;;5.96;77.28
59877;BME280;45749;51.140;17.184;2023-05-08T02:10:26;101266.44;;;5.99;77.28
59877;BME280;45749;51.140;17.184;2023-05-08T02:12:53;101274.34;;;5.98;77.50
59877;BME280;45749;51.140;17.184;2023-05-08T02:15:20;101273.41;;;5.99;77.28
59877;BME280;45749;51.140;17.184;2023-05-08T02:17:48;101261.44;;;5.92;77.08
59877;BME280;45749;51.140;17.184;2023-05-08T02:20:15;101270.88;;;5.97;77.42
59877;BME280;45749;51.140;17.184;2023-05-08T02:22:44;101282.19;;;5.98;77.31
59877;BME280;45749;51.140;17.184;2023-05-08T02:25:11;101275.31;;;5.95;77.37
59877;BME280;45749;51.140;17.184;2023-05-08T02:27:40;101275.47;;;5.91;77.13
59877;BME280;45749;51.140;17.184;2023-05-08T02:30:11;101275.53;;;5.89;77.23
59877;BME280;45749;51.140;17.184;2023-05-08T02:32:37;101289.41;;;5.93;77.30
59877;BME280;45749;51.140;17.184;2023-05-08T02:35:05;101291.19;;;5.91;77.31
59877;BME280;45749;51.140;17.184;2023-05-08T02:37:32;101284.34;;;5.86;77.51
59877;BME280;45749;51.140;17.184;2023-05-08T02:40:00;101286.97;;;5.86;77.27
59877;BME280;45749;51.140;17.184;2023-05-08T02:42:26;101289.41;;;5.91;77.35
59877;BME280;45749;51.140;17.184;2023-05-08T02:44:51;101296.41;;;5.91;77.53
59877;BME280;45749;51.140;17.184;2023-05-08T02:47:24;101295.56;;;5.90;77.24
59877;BME280;45749;51.140;17.184;2023-05-08T02:50:00;101289.63;;;5.85;77.62
59877;BME280;45749;51.140;17.184;2023-05-08T02:52:30;101293.91;;;5.87;77.52
59877;BME280;45749;51.140;17.184;2023-05-08T02:55:00;101301.03;;;5.84;77.66
59877;BME280;45749;51.140;17.184;2023-05-08T03:00:21;101296.84;;;5.80;77.39
59877;BME280;45749;51.140;17.184;2023-05-08T03:02:51;101296.13;;;5.75;77.53
59877;BME280;45749;51.140;17.184;2023-05-08T03:05:37;101295.34;;;5.73;77.82
59877;BME280;45749;51.140;17.184;2023-05-08T03:08:10;101298.00;;;5.71;77.62
59877;BME280;45749;51.140;17.184;2023-05-08T03:10:39;101296.34;;;5.69;77.63
59877;BME280;45749;51.140;17.184;2023-05-08T03:13:09;101296.47;;;5.65;77.85
59877;BME280;45749;51.140;17.184;2023-05-08T03:15:46;101305.34;;;5.61;77.89
59877;BME280;45749;51.140;17.184;2023-05-08T03:18:15;101310.03;;;5.53;77.92
59877;BME280;45749;51.140;17.184;2023-05-08T03:20:47;101311.84;;;5.51;78.13
59877;BME280;45749;51.140;17.184;2023-05-08T03:23:16;101312.75;;;5.50;78.28
59877;BME280;45749;51.140;17.184;2023-05-08T03:25:42;101310.19;;;5.49;78.16
59877;BME280;45749;51.140;17.184;2023-05-08T03:28:09;101308.69;;;5.41;78.28
59877;BME280;45749;51.140;17.184;2023-05-08T03:30:37;101306.13;;;5.40;78.23
59877;BME280;45749;51.140;17.184;2023-05-08T03:33:04;101298.44;;;5.35;78.26
59877;BME280;45749;51.140;17.184;2023-05-08T03:35:34;101307.72;;;5.44;78.63
59877;BME280;45749;51.140;17.184;2023-05-08T03:38:00;101300.66;;;5.46;78.48
59877;BME280;45749;51.140;17.184;2023-05-08T03:40:26;101310.19;;;5.49;78.33
59877;BME280;45749;51.140;17.184;2023-05-08T03:42:52;101306.88;;;5.44;78.42
59877;BME280;45749;51.140;17.184;2023-05-08T03:45:19;101314.75;;;5.44;78.39
59877;BME280;45749;51.140;17.184;2023-05-08T03:47:45;101312.06;;;5.45;78.48
59877;BME280;45749;51.140;17.184;2023-05-08T03:50:12;101317.25;;;5.47;78.57
59877;BME280;45749;51.140;17.184;2023-05-08T03:52:37;101313.63;;;5.49;78.52
59877;BME280;45749;51.140;17.184;2023-05-08T03:55:03;101310.13;;;5.50;78.64
59877;BME280;45749;51.140;17.184;2023-05-08T03:57:35;101311.03;;;5.49;78.62
59877;BME280;45749;51.140;17.184;2023-05-08T04:00:15;101322.28;;;5.53;78.97
59877;BME280;45749;51.140;17.184;2023-05-08T04:02:50;101322.31;;;5.51;78.65
59877;BME280;45749;51.140;17.184;2023-05-08T04:05:20;101324.88;;;5.53;78.83
59877;BME280;45749;51.140;17.184;2023-05-08T04:08:02;101323.13;;;5.53;78.89
59877;BME280;45749;51.140;17.184;2023-05-08T04:10:32;101319.66;;;5.53;78.82
59877;BME280;45749;51.140;17.184;2023-05-08T04:13:08;101329.97;;;5.56;78.99
59877;BME280;45749;51.140;17.184;2023-05-08T04:15:38;101337.81;;;5.57;78.91
59877;BME280;45749;51.140;17.184;2023-05-08T04:18:07;101330.13;;;5.53;79.25
59877;BME280;45749;51.140;17.184;2023-05-08T04:20:34;101333.38;;;5.59;79.40
59877;BME280;45749;51.140;17.184;2023-05-08T04:23:03;101328.25;;;5.56;79.17
59877;BME280;45749;51.140;17.184;2023-05-08T04:25:32;101341.34;;;5.56;79.57
59877;BME280;45749;51.140;17.184;2023-05-08T04:28:00;101338.81;;;5.53;79.81
59877;BME280;45749;51.140;17.184;2023-05-08T04:30:27;101342.19;;;5.57;79.95
59877;BME280;45749;51.140;17.184;2023-05-08T04:32:53;101343.97;;;5.56;80.02
59877;BME280;45749;51.140;17.184;2023-05-08T04:35:19;101349.31;;;5.53;80.51
59877;BME280;45749;51.140;17.184;2023-05-08T04:37:45;101356.22;;;5.54;80.44
59877;BME280;45749;51.140;17.184;2023-05-08T04:40:11;101358.03;;;5.52;80.47
59877;BME280;45749;51.140;17.184;2023-05-08T04:42:37;101361.69;;;5.48;80.70
59877;BME280;45749;51.140;17.184;2023-05-08T04:45:04;101358.09;;;5.51;81.01
59877;BME280;45749;51.140;17.184;2023-05-08T04:47:30;101365.03;;;5.52;80.99
59877;BME280;45749;51.140;17.184;2023-05-08T04:49:55;101368.50;;;5.52;81.05
59877;BME280;45749;51.140;17.184;2023-05-08T04:52:21;101369.22;;;5.57;81.15
59877;BME280;45749;51.140;17.184;2023-05-08T04:54:46;101366.53;;;5.59;81.30
59877;BME280;45749;51.140;17.184;2023-05-08T04:57:12;101358.84;;;5.54;81.44
59877;BME280;45749;51.140;17.184;2023-05-08T04:59:38;101375.00;;;5.67;81.24
59877;BME280;45749;51.140;17.184;2023-05-08T05:02:04;101379.31;;;5.68;81.80
59877;BME280;45749;51.140;17.184;2023-05-08T05:04:32;101375.94;;;5.64;81.79
59877;BME280;45749;51.140;17.184;2023-05-08T05:06:58;101385.28;;;5.72;82.00
59877;BME280;45749;51.140;17.184;2023-05-08T05:09:23;101390.41;;;5.75;82.04
59877;BME280;45749;51.140;17.184;2023-05-08T05:11:50;101393.75;;;5.80;82.01
59877;BME280;45749;51.140;17.184;2023-05-08T05:14:15;101395.16;;;5.88;82.08
59877;BME280;45749;51.140;17.184;2023-05-08T05:16:41;101389.81;;;5.92;81.98
59877;BME280;45749;51.140;17.184;2023-05-08T05:19:06;101388.88;;;5.94;82.03
59877;BME280;45749;51.140;17.184;2023-05-08T05:21:32;101386.03;;;6.00;82.12
59877;BME280;45749;51.140;17.184;2023-05-08T05:23:57;101388.47;;;6.05;82.48
59877;BME280;45749;51.140;17.184;2023-05-08T05:26:23;101383.03;;;6.11;82.72
59877;BME280;45749;51.140;17.184;2023-05-08T05:28:48;101389.84;;;6.15;82.24
59877;BME280;45749;51.140;17.184;2023-05-08T05:31:14;101389.84;;;6.15;82.53
59877;BME280;45749;51.140;17.184;2023-05-08T05:33:39;101386.34;;;6.16;82.69
59877;BME280;45749;51.140;17.184;2023-05-08T05:36:05;101388.84;;;6.19;82.67
59877;BME280;45749;51.140;17.184;2023-05-08T05:38:30;101392.09;;;6.26;82.89
59877;BME280;45749;51.140;17.184;2023-05-08T05:40:56;101389.34;;;6.29;82.80
59877;BME280;45749;51.140;17.184;2023-05-08T05:43:21;101390.03;;;6.34;82.72
59877;BME280;45749;51.140;17.184;2023-05-08T05:45:46;101390.53;;;6.44;83.01
59877;BME280;45749;51.140;17.184;2023-05-08T05:48:12;101388.47;;;6.52;82.87
59877;BME280;45749;51.140;17.184;2023-05-08T05:50:40;101383.34;;;6.49;82.92
59877;BME280;45749;51.140;17.184;2023-05-08T05:53:08;101394.22;;;6.62;82.81
59877;BME280;45749;51.140;17.184;2023-05-08T05:55:34;101396.72;;;6.65;82.79
59877;BME280;45749;51.140;17.184;2023-05-08T05:57:59;101398.97;;;6.74;82.54
59877;BME280;45749;51.140;17.184;2023-05-08T06:00:25;101391.09;;;6.74;82.67
59877;BME280;45749;51.140;17.184;2023-05-08T06:02:51;101400.41;;;6.81;82.66
59877;BME280;45749;51.140;17.184;2023-05-08T06:05:17;101402.91;;;6.84;82.42
59877;BME280;45749;51.140;17.184;2023-05-08T06:07:48;101379.63;;;6.76;82.49
59877;BME280;45749;51.140;17.184;2023-05-08T06:10:13;101389.06;;;6.80;82.35
59877;BME280;45749;51.140;17.184;2023-05-08T06:12:39;101389.03;;;6.82;82.53
59877;BME280;45749;51.140;17.184;2023-05-08T06:15:05;101393.09;;;6.89;82.65
59877;BME280;45749;51.140;17.184;2023-05-08T06:17:32;101398.47;;;7.08;82.78
59877;BME280;45749;51.140;17.184;2023-05-08T06:19:57;101386.13;;;7.10;82.66
59877;BME280;45749;51.140;17.184;2023-05-08T06:22:25;101381.59;;;7.14;82.50
59877;BME280;45749;51.140;17.184;2023-05-08T06:24:51;101416.38;;;7.41;82.30
59877;BME280;45749;51.140;17.184;2023-05-08T06:27:25;101379.31;;;7.26;81.63
59877;BME280;45749;51.140;17.184;2023-05-08T06:29:51;101411.72;;;7.47;81.39
59877;BME280;45749;51.140;17.184;2023-05-08T06:32:20;101414.84;;;7.56;81.90
59877;BME280;45749;51.140;17.184;2023-05-08T06:34:46;101406.97;;;7.56;81.67
59877;BME280;45749;51.140;17.184;2023-05-08T06:37:14;101382.56;;;7.54;81.69
59877;BME280;45749;51.140;17.184;2023-05-08T06:39:40;101411.19;;;7.80;81.54
59877;BME280;45749;51.140;17.184;2023-05-08T06:42:05;101405.94;;;7.80;81.21
59877;BME280;45749;51.140;17.184;2023-05-08T06:44:34;101414.97;;;7.93;81.36
59877;BME280;45749;51.140;17.184;2023-05-08T06:47:00;101370.16;;;7.76;81.26
59877;BME280;45749;51.140;17.184;2023-05-08T06:49:25;101404.19;;;7.99;80.68
59877;BME280;45749;51.140;17.184;2023-05-08T06:51:51;101418.75;;;8.26;81.23
59877;BME280;45749;51.140;17.184;2023-05-08T06:54:17;101385.31;;;8.10;80.83
59877;BME280;45749;51.140;17.184;2023-05-08T06:56:43;101401.00;;;8.31;80.64
59877;BME280;45749;51.140;17.184;2023-05-08T06:59:08;101429.06;;;8.51;80.81
59877;BME280;45749;51.140;17.184;2023-05-08T07:01:33;101434.47;;;8.66;81.02
59877;BME280;45749;51.140;17.184;2023-05-08T07:03:59;101427.84;;;8.77;80.83
59877;BME280;45749;51.140;17.184;2023-05-08T07:06:25;101436.28;;;8.83;80.18
59877;BME280;45749;51.140;17.184;2023-05-08T07:08:51;101435.91;;;8.91;79.85
59877;BME280;45749;51.140;17.184;2023-05-08T07:11:17;101433.84;;;8.98;79.63
59877;BME280;45749;51.140;17.184;2023-05-08T07:13:42;101433.34;;;9.08;80.09
59877;BME280;45749;51.140;17.184;2023-05-08T07:16:10;101433.75;;;9.18;79.97
59877;BME280;45749;51.140;17.184;2023-05-08T07:18:36;101433.13;;;9.30;79.23
59877;BME280;45749;51.140;17.184;2023-05-08T07:21:01;101436.28;;;9.37;78.88
59877;BME280;45749;51.140;17.184;2023-05-08T07:23:27;101435.06;;;9.44;78.73
59877;BME280;45749;51.140;17.184;2023-05-08T07:25:53;101431.22;;;9.51;78.69
59877;BME280;45749;51.140;17.184;2023-05-08T07:28:19;101428.16;;;9.59;78.10
59877;BME280;45749;51.140;17.184;2023-05-08T07:30:44;101431.25;;;9.67;78.05
59877;BME280;45749;51.140;17.184;2023-05-08T07:33:10;101429.09;;;9.75;77.61
59877;BME280;45749;51.140;17.184;2023-05-08T07:35:40;101426.84;;;9.85;77.35
59877;BME280;45749;51.140;17.184;2023-05-08T07:38:05;101434.19;;;9.96;76.97
59877;BME280;45749;51.140;17.184;2023-05-08T07:40:31;101435.50;;;10.04;76.34
59877;BME280;45749;51.140;17.184;2023-05-08T07:42:56;101427.16;;;10.12;75.97
59877;BME280;45749;51.140;17.184;2023-05-08T07:45:22;101426.69;;;10.21;75.44
59877;BME280;45749;51.140;17.184;2023-05-08T07:47:55;101432.25;;;10.32;75.15
59877;BME280;45749;51.140;17.184;2023-05-08T07:50:22;101421.19;;;10.42;75.28
59877;BME280;45749;51.140;17.184;2023-05-08T07:52:47;101435.53;;;10.53;74.49
59877;BME280;45749;51.140;17.184;2023-05-08T07:55:13;101431.50;;;10.62;74.21
59877;BME280;45749;51.140;17.184;2023-05-08T07:57:40;101431.00;;;10.71;74.00
59877;BME280;45749;51.140;17.184;2023-05-08T08:00:06;101436.56;;;10.83;73.16
59877;BME280;45749;51.140;17.184;2023-05-08T08:02:32;101434.50;;;10.88;72.59
59877;BME280;45749;51.140;17.184;2023-05-08T08:04:58;101434.56;;;11.02;73.42
59877;BME280;45749;51.140;17.184;2023-05-08T08:07:23;101430.47;;;11.12;73.09
59877;BME280;45749;51.140;17.184;2023-05-08T08:09:49;101439.28;;;11.27;72.51
59877;BME280;45749;51.140;17.184;2023-05-08T08:12:14;101430.56;;;11.41;72.28
59877;BME280;45749;51.140;17.184;2023-05-08T08:14:40;101428.22;;;11.50;72.48
59877;BME280;45749;51.140;17.184;2023-05-08T08:17:05;101423.16;;;11.62;72.31
59877;BME280;45749;51.140;17.184;2023-05-08T08:19:31;101421.50;;;11.75;71.93
59877;BME280;45749;51.140;17.184;2023-05-08T08:21:56;101417.28;;;11.87;70.99
59877;BME280;45749;51.140;17.184;2023-05-08T08:24:22;101419.19;;;11.99;70.49
59877;BME280;45749;51.140;17.184;2023-05-08T08:26:47;101418.50;;;12.10;70.20
59877;BME280;45749;51.140;17.184;2023-05-08T08:29:13;101418.72;;;12.21;69.85
59877;BME280;45749;51.140;17.184;2023-05-08T08:31:39;101404.88;;;12.30;68.95
59877;BME280;45749;51.140;17.184;2023-05-08T08:34:05;101413.09;;;12.40;69.02
59877;BME280;45749;51.140;17.184;2023-05-08T08:36:30;101411.56;;;12.50;68.47
59877;BME280;45749;51.140;17.184;2023-05-08T08:38:56;101420.44;;;12.63;68.34
59877;BME280;45749;51.140;17.184;2023-05-08T08:41:22;101413.69;;;12.72;66.88
59877;BME280;45749;51.140;17.184;2023-05-08T08:43:48;101418.72;;;12.77;66.86
59877;BME280;45749;51.140;17.184;2023-05-08T08:46:13;101412.28;;;12.81;67.35
59877;BME280;45749;51.140;17.184;2023-05-08T08:48:43;101414.22;;;12.91;66.58
59877;BME280;45749;51.140;17.184;2023-05-08T08:51:16;101411.69;;;13.03;66.90
59877;BME280;45749;51.140;17.184;2023-05-08T08:53:45;101407.41;;;13.14;66.37
59877;BME280;45749;51.140;17.184;2023-05-08T08:56:11;101399.06;;;13.21;66.65
59877;BME280;45749;51.140;17.184;2023-05-08T08:58:59;101414.06;;;13.34;65.52
59877;BME280;45749;51.140;17.184;2023-05-08T09:01:27;101416.94;;;13.44;66.10
59877;BME280;45749;51.140;17.184;2023-05-08T09:03:56;101418.56;;;13.59;65.61
59877;BME280;45749;51.140;17.184;2023-05-08T09:06:22;101426.84;;;13.68;65.07
59877;BME280;45749;51.140;17.184;2023-05-08T09:08:48;101426.84;;;13.80;64.81
59877;BME280;45749;51.140;17.184;2023-05-08T09:11:14;101419.44;;;13.86;65.30
59877;BME280;45749;51.140;17.184;2023-05-08T09:13:39;101423.88;;;13.98;64.70
59877;BME280;45749;51.140;17.184;2023-05-08T09:16:05;101411.44;;;14.11;64.99
59877;BME280;45749;51.140;17.184;2023-05-08T09:18:31;101416.66;;;14.25;63.76
59877;BME280;45749;51.140;17.184;2023-05-08T09:20:56;101419.59;;;14.34;64.54
59877;BME280;45749;51.140;17.184;2023-05-08T09:23:22;101408.53;;;14.40;63.81
59877;BME280;45749;51.140;17.184;2023-05-08T09:25:48;101420.63;;;14.57;63.92
59877;BME280;45749;51.140;17.184;2023-05-08T09:28:24;101421.44;;;14.70;62.58
59877;BME280;45749;51.140;17.184;2023-05-08T09:30:56;101425.97;;;14.81;62.51
59877;BME280;45749;51.140;17.184;2023-05-08T09:33:25;101427.47;;;14.85;62.02
59877;BME280;45749;51.140;17.184;2023-05-08T09:35:53;101414.34;;;14.94;63.21
59877;BME280;45749;51.140;17.184;2023-05-08T09:38:38;101423.97;;;15.08;61.81
59877;BME280;45749;51.140;17.184;2023-05-08T09:43:36;101428.16;;;15.23;59.57
59877;BME280;45749;51.140;17.184;2023-05-08T09:46:22;101427.78;;;15.28;60.47
59877;BME280;45749;51.140;17.184;2023-05-08T09:48:49;101428.19;;;15.35;59.10
59877;BME280;45749;51.140;17.184;2023-05-08T09:51:15;101423.84;;;15.34;59.55
59877;BME280;45749;51.140;17.184;2023-05-08T09:53:41;101410.19;;;15.38;58.70
59877;BME280;45749;51.140;17.184;2023-05-08T09:56:06;101411.31;;;15.47;58.50
59877;BME280;45749;51.140;17.184;2023-05-08T09:58:42;101419.19;;;15.60;58.31
59877;BME280;45749;51.140;17.184;2023-05-08T10:01:26;101412.91;;;15.61;58.88
59877;BME280;45749;51.140;17.184;2023-05-08T10:03:52;101414.34;;;15.65;58.39
59877;BME280;45749;51.140;17.184;2023-05-08T10:06:17;101412.94;;;15.72;58.81
59877;BME280;45749;51.140;17.184;2023-05-08T10:08:44;101404.88;;;15.85;58.78
59877;BME280;45749;51.140;17.184;2023-05-08T10:11:18;101411.06;;;15.97;58.08
59877;BME280;45749;51.140;17.184;2023-05-08T10:13:44;101395.91;;;16.08;56.49
59877;BME280;45749;51.140;17.184;2023-05-08T10:16:14;101399.78;;;16.15;56.66
59877;BME280;45749;51.140;17.184;2023-05-08T10:18:46;101403.69;;;16.23;56.19
59877;BME280;45749;51.140;17.184;2023-05-08T10:21:16;101380.81;;;16.20;56.48
59877;BME280;45749;51.140;17.184;2023-05-08T10:23:42;101396.16;;;16.39;56.93
59877;BME280;45749;51.140;17.184;2023-05-08T10:26:13;101385.97;;;16.44;56.79
59877;BME280;45749;51.140;17.184;2023-05-08T10:28:43;101396.25;;;16.60;56.18
59877;BME280;45749;51.140;17.184;2023-05-08T10:31:16;101400.00;;;16.69;55.99
59877;BME280;45749;51.140;17.184;2023-05-08T10:33:44;101394.16;;;16.86;56.65
59877;BME280;45749;51.140;17.184;2023-05-08T10:36:10;101391.19;;;17.00;56.79
59877;BME280;45749;51.140;17.184;2023-05-08T10:38:38;101371.66;;;17.11;55.59
59877;BME280;45749;51.140;17.184;2023-05-08T10:41:07;101380.31;;;17.24;55.50
59877;BME280;45749;51.140;17.184;2023-05-08T10:43:45;101371.75;;;17.30;54.30
59877;BME280;45749;51.140;17.184;2023-05-08T10:49:33;101377.56;;;17.35;54.37
59877;BME280;45749;51.140;17.184;2023-05-08T10:57:23;101367.22;;;17.42;53.06
59877;BME280;45749;51.140;17.184;2023-05-08T10:59:49;101365.88;;;17.48;53.13
59877;BME280;45749;51.140;17.184;2023-05-08T11:02:14;101356.13;;;17.47;53.19
59877;BME280;45749;51.140;17.184;2023-05-08T11:04:40;101362.53;;;17.55;53.50
59877;BME280;45749;51.140;17.184;2023-05-08T11:07:07;101357.78;;;17.59;53.17
59877;BME280;45749;51.140;17.184;2023-05-08T11:15:05;101351.50;;;17.70;51.29
59877;BME280;45749;51.140;17.184;2023-05-08T11:17:31;101361.34;;;17.69;51.39
59877;BME280;45749;51.140;17.184;2023-05-08T11:20:02;101358.91;;;17.77;52.27
59877;BME280;45749;51.140;17.184;2023-05-08T11:22:32;101350.47;;;17.82;51.73
59877;BME280;45749;51.140;17.184;2023-05-08T11:30:18;101344.16;;;17.83;49.87
59877;BME280;45749;51.140;17.184;2023-05-08T11:35:56;101354.00;;;17.62;49.13
59877;BME280;45749;51.140;17.184;2023-05-08T11:41:08;101339.34;;;17.56;50.12
59877;BME280;45749;51.140;17.184;2023-05-08T11:46:05;101341.28;;;17.75;49.48
59877;BME280;45749;51.140;17.184;2023-05-08T11:48:34;101340.38;;;17.86;49.05
59877;BME280;45749;51.140;17.184;2023-05-08T11:51:01;101351.78;;;17.88;48.98
59877;BME280;45749;51.140;17.184;2023-05-08T11:53:30;101322.28;;;17.68;48.71
59877;BME280;45749;51.140;17.184;2023-05-08T11:55:57;101335.63;;;17.68;48.62
59877;BME280;45749;51.140;17.184;2023-05-08T11:58:23;101338.03;;;17.71;49.18
59877;BME280;45749;51.140;17.184;2023-05-08T12:00:48;101309.47;;;17.62;49.29
59877;BME280;45749;51.140;17.184;2023-05-08T12:03:16;101311.19;;;17.73;49.38
59877;BME280;45749;51.140;17.184;2023-05-08T12:05:42;101316.78;;;17.91;49.02
59877;BME280;45749;51.140;17.184;2023-05-08T12:08:11;101304.97;;;17.84;48.25
59877;BME280;45749;51.140;17.184;2023-05-08T12:10:47;101328.94;;;18.04;47.65
59877;BME280;45749;51.140;17.184;2023-05-08T14:02:08;101264.03;;;18.23;42.69
59877;BME280;45749;51.140;17.184;2023-05-08T14:04:33;101256.03;;;18.23;42.38
59877;BME280;45749;51.140;17.184;2023-05-08T14:06:59;101250.94;;;18.20;42.75
59877;BME280;45749;51.140;17.184;2023-05-08T14:09:25;101260.22;;;18.26;43.06
59877;BME280;45749;51.140;17.184;2023-05-08T14:11:50;101257.28;;;18.29;43.55
59877;BME280;45749;51.140;17.184;2023-05-08T14:14:16;101251.53;;;18.34;43.28
59877;BME280;45749;51.140;17.184;2023-05-08T14:16:41;101262.34;;;18.32;42.38
59877;BME280;45749;51.140;17.184;2023-05-08T14:19:06;101256.59;;;18.27;41.56
59877;BME280;45749;51.140;17.184;2023-05-08T14:21:31;101251.78;;;18.21;43.02
59877;BME280;45749;51.140;17.184;2023-05-08T14:23:58;101251.50;;;18.24;42.51
59877;BME280;45749;51.140;17.184;2023-05-08T14:26:23;101252.19;;;18.26;41.59
59877;BME280;45749;51.140;17.184;2023-05-08T14:28:50;101248.84;;;18.24;42.11
59877;BME280;45749;51.140;17.184;2023-05-08T14:31:15;101245.59;;;18.20;41.84
59877;BME280;45749;51.140;17.184;2023-05-08T14:33:41;101248.69;;;18.25;42.77
59877;BME280;45749;51.140;17.184;2023-05-08T14:36:06;101242.50;;;18.25;42.33
59877;BME280;45749;51.140;17.184;2023-05-08T14:38:32;101243.50;;;18.24;41.84
59877;BME280;45749;51.140;17.184;2023-05-08T14:40:57;101240.53;;;18.17;41.66
59877;BME280;45749;51.140;17.184;2023-05-08T14:43:22;101242.66;;;18.14;41.56
59877;BME280;45749;51.140;17.184;2023-05-08T14:45:49;101251.78;;;18.11;41.40
59877;BME280;45749;51.140;17.184;2023-05-08T14:48:14;101251.06;;;18.09;41.16
59877;BME280;45749;51.140;17.184;2023-05-08T14:50:39;101255.72;;;18.07;41.11
59877;BME280;45749;51.140;17.184;2023-05-08T14:53:05;101243.59;;;18.03;42.03
59877;BME280;45749;51.140;17.184;2023-05-08T14:55:30;101243.31;;;18.06;42.13
59877;BME280;45749;51.140;17.184;2023-05-08T14:57:56;101236.44;;;18.03;41.61
59877;BME280;45749;51.140;17.184;2023-05-08T15:00:21;101255.72;;;18.07;41.10
59877;BME280;45749;51.140;17.184;2023-05-08T15:02:47;101242.75;;;18.02;41.60
59877;BME280;45749;51.140;17.184;2023-05-08T15:05:13;101257.81;;;18.03;42.14
59877;BME280;45749;51.140;17.184;2023-05-08T15:07:38;101249.50;;;17.97;41.03
59877;BME280;45749;51.140;17.184;2023-05-08T15:10:04;101242.88;;;17.91;40.85
59877;BME280;45749;51.140;17.184;2023-05-08T15:12:30;101242.16;;;17.89;41.12
59877;BME280;45749;51.140;17.184;2023-05-08T15:14:56;101242.13;;;17.79;40.81
59877;BME280;45749;51.140;17.184;2023-05-08T15:17:21;101246.88;;;17.76;42.04
59877;BME280;45749;51.140;17.184;2023-05-08T15:19:46;101242.28;;;17.78;41.36
59877;BME280;45749;51.140;17.184;2023-05-08T15:22:12;101246.03;;;17.75;41.30